createdAt,value
2023-02-03T00:02:52.603Z,13.50
2023-02-03T00:06:32.125Z,14.10
2023-02-03T00:09:53.035Z,15.20
2023-02-03T00:13:09.326Z,16.30
2023-02-03T00:16:44.044Z,15.30
2023-02-03T00:20:12.900Z,15.90
2023-02-03T00:23:52.998Z,15.60
2023-02-03T00:27:10.025Z,14.20
2023-02-03T00:30:18.118Z,14.80
2023-02-03T00:33:40.482Z,15.00
2023-02-03T00:37:05.188Z,14.90
2023-02-03T00:40:31.420Z,14.40
2023-02-03T00:43:50.707Z,13.30
2023-02-03T00:47:15.904Z,13.90
2023-02-03T00:50:55.689Z,12.60
2023-02-03T00:54:03.341Z,13.10
2023-02-03T00:57:35.216Z,13.10
2023-02-03T01:01:15.916Z,12.20
2023-02-03T01:04:43.995Z,12.70
2023-02-03T01:08:06.131Z,12.80
2023-02-03T01:10:53.910Z,12.80
2023-02-03T01:14:41.786Z,12.60
2023-02-03T01:17:58.549Z,11.70
2023-02-03T01:20:45.400Z,11.70
2023-02-03T01:23:52.004Z,11.00
2023-02-03T01:27:07.451Z,11.70
2023-02-03T01:30:15.606Z,13.70
2023-02-03T01:33:17.223Z,11.30
2023-02-03T01:36:05.888Z,13.40
2023-02-03T01:39:46.090Z,15.30
2023-02-03T01:43:20.191Z,14.60
2023-02-03T01:47:11.392Z,13.00
2023-02-03T01:50:52.217Z,11.80
2023-02-03T01:54:31.319Z,12.40
2023-02-03T01:57:40.021Z,12.90
2023-02-03T02:00:47.782Z,12.00
2023-02-03T02:03:50.405Z,12.40
2023-02-03T02:06:48.225Z,13.10
2023-02-03T02:09:35.602Z,14.90
2023-02-03T02:12:50.469Z,14.90
2023-02-03T02:16:35.549Z,12.90
2023-02-03T02:20:39.498Z,13.00
2023-02-03T02:24:10.425Z,11.30
2023-02-03T02:27:33.074Z,11.10
2023-02-03T02:30:53.708Z,11.70
2023-02-03T02:34:45.905Z,11.70
2023-02-03T02:38:00.036Z,11.60
2023-02-03T02:41:39.463Z,10.60
2023-02-03T02:45:30.401Z,12.60
2023-02-03T02:49:04.293Z,12.50
2023-02-03T02:52:44.325Z,12.10
2023-02-03T02:56:11.604Z,12.20
2023-02-03T02:59:45.691Z,12.10
2023-02-03T03:03:35.136Z,13.50
2023-02-03T03:07:12.666Z,14.70
2023-02-03T03:10:33.883Z,14.40
2023-02-03T03:14:10.367Z,14.10
2023-02-03T03:17:42.455Z,14.80
2023-02-03T03:21:07.444Z,13.80
2023-02-03T03:24:29.501Z,13.90
2023-02-03T03:28:11.146Z,13.20
2023-02-03T03:31:16.002Z,11.70
2023-02-03T03:34:55.091Z,12.80
2023-02-03T03:38:31.884Z,11.20
2023-02-03T03:42:08.833Z,10.00
2023-02-03T03:45:24.211Z,8.50
2023-02-03T03:48:54.278Z,9.20
2023-02-03T03:52:47.565Z,8.90
2023-02-03T03:56:18.700Z,9.20
2023-02-03T03:59:43.133Z,8.70
2023-02-03T04:02:55.613Z,9.10
2023-02-03T04:06:22.302Z,9.10
2023-02-03T04:10:06.627Z,9.60
2023-02-03T04:13:20.746Z,9.60
2023-02-03T04:17:02.177Z,9.50
2023-02-03T04:20:52.418Z,10.00
2023-02-03T04:24:41.604Z,9.80
2023-02-03T04:28:08.421Z,10.20
2023-02-03T04:31:57.550Z,8.90
2023-02-03T04:35:46.589Z,9.10
2023-02-03T04:39:28.843Z,8.80
2023-02-03T04:43:03.053Z,8.50
2023-02-03T04:46:52.089Z,8.30
2023-02-03T04:50:29.768Z,8.90
2023-02-03T04:54:11.202Z,9.50
2023-02-03T04:57:53.001Z,10.10
2023-02-03T05:01:32.127Z,9.90
2023-02-03T05:05:20.060Z,9.20
2023-02-03T05:09:09.881Z,9.10
2023-02-03T05:12:51.509Z,8.10
2023-02-03T05:16:33.315Z,7.80
2023-02-03T05:19:50.772Z,7.60
2023-02-03T05:23:34.877Z,9.30
2023-02-03T05:26:56.797Z,9.00
2023-02-03T05:30:37.487Z,9.00
2023-02-03T05:34:14.425Z,9.60
2023-02-03T05:37:06.074Z,10.00
2023-02-03T05:40:29.018Z,10.00
2023-02-03T05:43:54.731Z,9.60
2023-02-03T05:47:01.702Z,11.30
2023-02-03T05:50:42.898Z,11.70
2023-02-03T05:54:13.037Z,12.30
2023-02-03T05:58:02.975Z,13.00
2023-02-03T06:01:17.154Z,14.10
2023-02-03T06:04:49.884Z,14.90
2023-02-03T06:08:28.453Z,13.90
2023-02-03T06:11:57.024Z,13.40
2023-02-03T06:15:07.191Z,14.10
2023-02-03T06:18:55.910Z,12.70
2023-02-03T06:22:27.508Z,12.30
2023-02-03T06:25:32.111Z,16.00
2023-02-03T06:29:13.167Z,16.60
2023-02-03T06:32:56.054Z,16.40
2023-02-03T06:36:34.722Z,20.00
2023-02-03T06:40:14.917Z,18.70
2023-02-03T06:43:27.885Z,22.70
2023-02-03T06:47:05.892Z,18.60
2023-02-03T06:50:40.208Z,14.10
2023-02-03T06:54:04.986Z,14.50
2023-02-03T06:57:32.573Z,15.40
2023-02-03T07:00:54.721Z,13.20
2023-02-03T07:04:34.591Z,12.70
2023-02-03T07:08:14.820Z,16.00
2023-02-03T07:11:26.582Z,16.80
2023-02-03T07:14:46.053Z,13.40
2023-02-03T07:22:17.636Z,16.40
2023-02-03T07:25:31.225Z,14.70
2023-02-03T07:28:55.214Z,14.30
2023-02-03T07:32:27.230Z,19.70
2023-02-03T07:35:52.081Z,16.30
2023-02-03T07:38:55.695Z,12.70
2023-02-03T07:42:31.889Z,15.50
2023-02-03T07:45:48.739Z,14.10
2023-02-03T07:49:07.982Z,14.30
2023-02-03T07:52:48.408Z,13.60
2023-02-03T07:56:28.461Z,14.80
2023-02-03T07:59:55.816Z,13.80
2023-02-03T08:03:28.111Z,14.00
2023-02-03T08:07:00.722Z,22.00
2023-02-03T08:10:49.748Z,15.70
2023-02-03T08:14:17.181Z,18.00
2023-02-03T08:17:29.823Z,23.40
2023-02-03T08:21:10.725Z,20.40
2023-02-03T08:24:46.767Z,22.00
2023-02-03T08:28:21.939Z,24.10
2023-02-03T08:31:59.489Z,20.20
2023-02-03T08:35:12.679Z,16.60
2023-02-03T08:38:24.828Z,21.50
2023-02-03T08:42:06.338Z,14.10
2023-02-03T08:45:49.889Z,13.80
2023-02-03T08:49:25.532Z,9.30
2023-02-03T08:53:07.316Z,10.20
2023-02-03T08:56:57.309Z,9.00
2023-02-03T09:00:27.136Z,7.80
2023-02-03T09:04:10.540Z,8.30
2023-02-03T09:07:04.483Z,7.20
2023-02-03T09:10:19.688Z,8.20
2023-02-03T09:13:55.416Z,8.10
2023-02-03T09:16:58.382Z,6.70
2023-02-03T09:20:02.561Z,6.20
2023-02-03T09:24:21.229Z,6.40
2023-02-03T09:27:11.845Z,6.20
2023-02-03T09:31:04.128Z,5.10
2023-02-03T09:34:36.583Z,5.30
2023-02-03T09:38:25.911Z,5.90
2023-02-03T09:42:39.811Z,5.80
2023-02-03T09:46:26.871Z,6.90
2023-02-03T09:50:06.185Z,7.00
2023-02-03T09:53:55.277Z,13.10
2023-02-03T09:57:44.502Z,31.00
2023-02-03T10:01:36.348Z,12.40
2023-02-03T10:05:32.701Z,7.50
2023-02-03T10:10:13.962Z,7.60
2023-02-03T10:14:51.843Z,8.10
2023-02-03T10:19:27.819Z,14.60
2023-02-03T10:24:01.357Z,8.80
2023-02-03T10:28:31.121Z,8.20
2023-02-03T10:33:00.928Z,10.40
2023-02-03T10:37:40.162Z,12.00
2023-02-03T10:42:13.457Z,10.10
2023-02-03T10:46:43.978Z,19.10
2023-02-03T10:51:19.230Z,11.40
2023-02-03T10:56:03.992Z,11.30
2023-02-03T11:00:46.976Z,12.80
2023-02-03T11:05:28.357Z,12.40
2023-02-03T11:13:23.188Z,14.60
2023-02-03T11:17:20.557Z,15.50
2023-02-03T11:21:33.748Z,16.60
2023-02-03T11:26:06.263Z,15.60
2023-02-03T11:30:56.087Z,16.20
2023-02-03T11:35:11.471Z,14.90
2023-02-03T11:39:10.051Z,15.90
2023-02-03T11:42:59.608Z,13.30
2023-02-03T11:47:01.126Z,12.50
2023-02-03T11:50:55.840Z,11.60
2023-02-03T11:54:15.605Z,10.50
2023-02-03T11:58:05.644Z,9.70
2023-02-03T12:02:03.722Z,9.00
2023-02-03T12:05:57.587Z,9.20
2023-02-03T12:10:13.096Z,8.20
2023-02-03T12:13:59.585Z,7.20
2023-02-03T12:17:53.043Z,6.70
2023-02-03T12:21:51.456Z,6.50
2023-02-03T12:25:39.570Z,5.90
2023-02-03T12:29:46.903Z,5.70
2023-02-03T12:33:14.297Z,5.00
2023-02-03T12:37:11.060Z,4.50
2023-02-03T12:41:19.555Z,6.20
2023-02-03T12:50:09.332Z,3.10
2023-02-03T12:54:34.167Z,3.20
2023-02-03T12:58:39.304Z,2.50
2023-02-03T13:02:41.154Z,1.90
2023-02-03T13:07:05.719Z,3.30
2023-02-03T13:11:01.980Z,4.10
2023-02-03T13:15:10.637Z,4.40
2023-02-03T13:19:23.025Z,3.70
2023-02-03T13:24:01.366Z,3.60
2023-02-03T13:28:30.523Z,3.20
2023-02-03T13:33:04.589Z,3.00
